WetterOnline ( https://www.wetteronline.de )

Wetter aktuell Pölzig

Aktuelles Wetter: Gera/Leumnitz (311m)

6-stündlich | Neueste Meldungen
Ortszeit Temperatur Wetter
Mo, 24.06. 14:00 26.1° C wolkenlos
Mo, 24.06. 8:00 19.7° C fast wolkenlos
Mo, 24.06. 2:00 16.5° C wolkenlos
So, 23.06. 20:00 23.9° C wolkenlos
So, 23.06. 14:00 25.1° C fast wolkenlos
So, 23.06. 8:00 17.5° C fast wolkenlos
So, 23.06. 2:00 17.2° C bedeckt
Sa, 22.06. 20:00 20.6° C bedeckt
Ortszeit Temperatur Wetter
Mo, 24.06. 15:00 26.8° C leicht bewölkt
Mo, 24.06. 14:50 26.8° C leicht bewölkt
Mo, 24.06. 14:40 27.1° C wolkig
Mo, 24.06. 14:30 26.6° C fast wolkenlos
Mo, 24.06. 14:20 26.6° C fast wolkenlos
Mo, 24.06. 14:10 26.4° C wolkenlos
Mo, 24.06. 14:00 26.1° C wolkenlos
Mo, 24.06. 13:30 26.2° C wolkenlos
Mo, 24.06. 13:00 25.3° C fast wolkenlos
Mo, 24.06. 12:30 25.1° C wolkig
Mo, 24.06. 12:00 25.6° C leicht bewölkt
Ortszeit Relative Feuchte Sichtweite
Mo, 24.06. 14:00 32% 60 km
Mo, 24.06. 8:00 63% 55 km
Mo, 24.06. 2:00 75% 45 km
So, 23.06. 20:00 50% >70 km
So, 23.06. 14:00 48% 50 km
So, 23.06. 8:00 67% 65 km
So, 23.06. 2:00 69% 45 km
Sa, 22.06. 20:00 71% 55 km
Ortszeit Relative Feuchte Sichtweite
Mo, 24.06. 15:00 30% 40 km
Mo, 24.06. 14:50 30% -
Mo, 24.06. 14:40 29% -
Mo, 24.06. 14:30 32% 55 km
Mo, 24.06. 14:20 32% -
Mo, 24.06. 14:10 31% -
Mo, 24.06. 14:00 32% 60 km
Mo, 24.06. 13:30 32% 50 km
Mo, 24.06. 13:00 31% 55 km
Mo, 24.06. 12:30 34% >70 km
Mo, 24.06. 12:00 41% 55 km
Ortszeit Niederschlagsmenge Niederschlagsart
Mo, 24.06. 14:00 0.1 l/m2 in 6 Std. Schauer
Mo, 24.06. 8:00 0.0 l/m2 in 12 Std. -
Mo, 24.06. 2:00 0.0 l/m2 in 6 Std. -
So, 23.06. 20:00 0.0 l/m2 in 12 Std. -
So, 23.06. 14:00 0.0 l/m2 in 6 Std. -
So, 23.06. 8:00 0.0 l/m2 in 12 Std. -
So, 23.06. 2:00 0.0 l/m2 in 6 Std. -
Sa, 22.06. 20:00 0.1 l/m2 in 12 Std. Regen
Ortszeit Niederschlagsmenge Niederschlagsart
Mo, 24.06. 15:00 0.0 l/m2 in 1 Std. -
Mo, 24.06. 14:50 keine Meldung -
Mo, 24.06. 14:40 keine Meldung -
Mo, 24.06. 14:30 0.0 l/m2 in 1 Std. -
Mo, 24.06. 14:20 keine Meldung -
Mo, 24.06. 14:10 keine Meldung -
Mo, 24.06. 14:00 0.1 l/m2 in 1 Std. Schauer
Mo, 24.06. 13:30 0.1 l/m2 in 1 Std. Regen
Mo, 24.06. 13:00 0.0 l/m2 in 1 Std. -
Mo, 24.06. 12:30 0.0 l/m2 in 1 Std. -
Mo, 24.06. 12:00 0.0 l/m2 in 1 Std. -
Ortszeit Stärke Spitze Richtung
km/h Bft. km/h Grad Sektor
Mo, 24.06. 14:00 22 4 36 80° O
Mo, 24.06. 8:00 7 2 14 100° O
Mo, 24.06. 2:00 7 2 22 120° SO
So, 23.06. 20:00 17 3 33 70° O
So, 23.06. 14:00 20 4 39 80° O
So, 23.06. 8:00 11 2 25 50° NO
So, 23.06. 2:00 17 3 26 60° NO
Sa, 22.06. 20:00 4 1 47 110° O
Ortszeit Stärke Spitze Richtung
km/h Bft. km/h Grad Sektor
Mo, 24.06. 15:00 17 3 33 70° O
Mo, 24.06. 14:50 17 3 - 70° O
Mo, 24.06. 14:40 18 3 - 80° O
Mo, 24.06. 14:30 18 3 32 90° O
Mo, 24.06. 14:20 18 3 - 90° O
Mo, 24.06. 14:10 20 4 - 70° O
Mo, 24.06. 14:00 22 4 32 80° O
Mo, 24.06. 13:30 22 4 32 80° O
Mo, 24.06. 13:00 17 3 35 70° O
Mo, 24.06. 12:30 22 4 36 90° O
Mo, 24.06. 12:00 22 4 33 100° O
Ortszeit Untergrenze Bedeckung Gattung
total tief tief mittel hoch
Mo, 24.06. 14:00 - 0/8 0/8 - - -
Mo, 24.06. 8:00 10500 m 2/8 0/8 - - -
Mo, 24.06. 2:00 - 0/8 0/8 - - -
So, 23.06. 20:00 - 0/8 0/8 - - -
So, 23.06. 14:00 1440 m 0/8 0/8 - - -
So, 23.06. 8:00 9000 m 1/8 0/8 - - -
So, 23.06. 2:00 3000 m 8/8 8/8 - - -
Sa, 22.06. 20:00 2700 m 8/8 8/8 - - -
Ortszeit Bedeckungsgrad in Achtel und Wolkenuntergrenze
Mo, 24.06. 15:00 5(10500m) 6(12000m)
Mo, 24.06. 14:50 5(10500m) 6(12000m)
Mo, 24.06. 14:40 6(10500m) 7(12000m)
Mo, 24.06. 14:30 1(12000m) 5(12000m)
Mo, 24.06. 14:20 1(12000m)
Mo, 24.06. 14:10 keine Wolken
Mo, 24.06. 14:00 keine Wolken
Mo, 24.06. 13:30 keine Wolken
Mo, 24.06. 13:00 1(10500m)
Mo, 24.06. 12:30 6(10500m) 8(12000m)
Mo, 24.06. 12:00 6(10500m) 7(12000m)
Ortszeit Luftdruck NN (hPa) Tendenz (hPa in 3 Std.)
Mo, 24.06. 14:00 1022 - 0,6
Mo, 24.06. 8:00 1023 + 0,9
Mo, 24.06. 2:00 1023 + 0,9
So, 23.06. 20:00 1020 + 0,4
So, 23.06. 14:00 1020 0,0
So, 23.06. 8:00 1021 + 0,9
So, 23.06. 2:00 1019 + 0,4
Sa, 22.06. 20:00 1018 - 0,3
Ortszeit Luftdruck NN (hPa) Tendenz (hPa in 3 Std.)
Mo, 24.06. 15:00 1021 - 0,7
Mo, 24.06. 14:50 1021 keine Meldung
Mo, 24.06. 14:40 1022 keine Meldung
Mo, 24.06. 14:30 1022 - 0,7
Mo, 24.06. 14:20 1022 keine Meldung
Mo, 24.06. 14:10 1022 keine Meldung
Mo, 24.06. 14:00 1022 - 0,6
Mo, 24.06. 13:30 1022 - 0,5
Mo, 24.06. 13:00 1022 - 0,6
Mo, 24.06. 12:30 1022 - 0,7
Mo, 24.06. 12:00 1022 - 0,5
Ortszeit Schneehöhe (cm)
Mo, 24.06. 14:00 -
Mo, 24.06. 8:00 -
Mo, 24.06. 2:00 -
So, 23.06. 20:00 -
So, 23.06. 14:00 -
So, 23.06. 8:00 -
So, 23.06. 2:00 -
Sa, 22.06. 20:00 -
Ortszeit Schneehöhe (cm)
Mo, 24.06. 15:00 -
Mo, 24.06. 14:50 -
Mo, 24.06. 14:40 -
Mo, 24.06. 14:30 -
Mo, 24.06. 14:20 -
Mo, 24.06. 14:10 -
Mo, 24.06. 14:00 -
Mo, 24.06. 13:30 -
Mo, 24.06. 13:00 -
Mo, 24.06. 12:30 -
Mo, 24.06. 12:00 -
Link zu dieser Seite / Seite empfehlen

Das Wetter in ...